Time;durP1;ratioP1;P1;durP2;ratioP2;P2;SDS_P1;SDS_P2;PMS_P1;PMS_P2;Temp;Humidity;BMP_temperature;BMP_pressure;BME280_temperature;BME280_humidity;BME280_pressure;Samples;Min_cycle;Max_cycle;Signal;HPM_P1;HPM_P2
2021/08/20 00:01:31;;;;;;;4.82;2.97;;;;;;;24.10;100.00;96316.78;4949872;28;20078;-54
2021/08/20 00:04:02;;;;;;;3.40;3.08;;;;;;;23.68;100.00;96316.84;4949487;28;20089;-51
2021/08/20 00:06:32;;;;;;;7.43;3.00;;;;;;;23.46;100.00;96310.28;4947734;28;20445;-51
2021/08/20 00:09:00;;;;;;;4.90;3.30;;;;;;;23.47;100.00;96309.25;4942756;28;20462;-49
2021/08/20 00:11:30;;;;;;;5.05;2.90;;;;;;;23.75;100.00;96310.53;4948074;28;20063;-50
2021/08/20 00:13:59;;;;;;;3.38;3.00;;;;;;;23.64;100.00;96314.78;4945465;28;20086;-50
2021/08/20 00:16:27;;;;;;;4.55;3.25;;;;;;;23.77;100.00;96320.00;4944381;28;20079;-53
2021/08/20 00:18:56;;;;;;;4.20;3.13;;;;;;;23.87;100.00;96317.56;4942857;28;20063;-54
2021/08/20 00:21:24;;;;;;;4.90;3.58;;;;;;;23.68;100.00;96314.16;4941767;28;20071;-51
2021/08/20 00:23:52;;;;;;;3.38;2.85;;;;;;;23.77;100.00;96311.91;4945245;28;20082;-56
2021/08/20 00:26:21;;;;;;;5.50;2.88;;;;;;;23.87;100.00;96316.75;4939960;28;20470;-53
2021/08/20 00:28:50;;;;;;;4.35;3.08;;;;;;;23.93;100.00;96307.75;4946458;28;20062;-52
2021/08/20 00:31:19;;;;;;;6.22;2.90;;;;;;;23.96;100.00;96314.53;4947476;28;23272;-50
2021/08/20 00:33:47;;;;;;;3.88;3.00;;;;;;;23.76;100.00;96312.97;4947942;28;20086;-51
2021/08/20 00:36:16;;;;;;;5.75;3.00;;;;;;;23.90;100.00;96313.59;4945668;28;20469;-49
2021/08/20 00:38:44;;;;;;;4.20;2.95;;;;;;;23.96;100.00;96315.34;4943479;28;20070;-49
2021/08/20 00:41:13;;;;;;;5.07;2.95;;;;;;;23.63;100.00;96318.53;4945497;28;20094;-50
2021/08/20 00:43:42;;;;;;;4.05;3.10;;;;;;;23.94;100.00;96312.06;4950744;28;20082;-49
2021/08/20 00:46:12;;;;;;;6.07;3.17;;;;;;;23.59;100.00;96314.66;4948412;28;20074;-48
2021/08/20 00:48:40;;;;;;;3.78;3.33;;;;;;;23.20;100.00;96315.00;4940651;28;20086;-49
2021/08/20 00:51:17;;;;;;;5.38;3.55;;;;;;;23.31;100.00;96309.91;4942799;28;20066;-48
2021/08/20 00:53:46;;;;;;;3.83;3.17;;;;;;;23.35;100.00;96303.81;4943895;28;20071;-51
2021/08/20 00:56:15;;;;;;;4.80;3.20;;;;;;;23.13;100.00;96292.75;4948291;28;20454;-50
2021/08/20 00:58:43;;;;;;;4.47;3.45;;;;;;;23.46;100.00;96297.66;4947878;28;20079;-48
2021/08/20 01:01:13;;;;;;;4.75;3.30;;;;;;;23.13;100.00;96287.38;4942874;28;20118;-49
2021/08/20 01:03:42;;;;;;;4.00;3.45;;;;;;;23.35;100.00;96295.75;4948717;28;20543;-54
2021/08/20 01:06:10;;;;;;;6.88;3.60;;;;;;;23.46;100.00;96294.97;4950854;28;20078;-56
2021/08/20 01:08:39;;;;;;;5.13;3.33;;;;;;;23.46;100.00;96294.97;4942573;28;20063;-49
2021/08/20 01:11:11;;;;;;;4.03;3.10;;;;;;;23.54;100.00;96287.63;4946087;28;20087;-50
2021/08/20 01:13:42;;;;;;;4.18;3.10;;;;;;;23.20;100.00;96290.81;4940898;28;20086;-51
2021/08/20 01:16:10;;;;;;;;;;;;;;;23.04;100.00;96291.44;4942818;28;20143;-52
2021/08/20 01:18:42;;;;;;;4.95;3.45;;;;;;;23.02;100.00;96290.84;4944654;28;19961;-52
2021/08/20 01:21:13;;;;;;;5.28;3.35;;;;;;;23.04;100.00;96290.59;4947655;28;20185;-52
2021/08/20 01:23:42;;;;;;;8.02;3.65;;;;;;;23.24;100.00;96288.47;4951020;28;20080;-52
2021/08/20 01:26:12;;;;;;;6.15;3.55;;;;;;;23.13;100.00;96291.94;4948437;28;20093;-51
2021/08/20 01:28:41;;;;;;;5.05;3.47;;;;;;;22.95;100.00;96280.19;4947345;28;20086;-50
2021/08/20 01:31:11;;;;;;;5.15;3.90;;;;;;;22.63;100.00;96282.19;4950881;28;20067;-53
2021/08/20 01:33:40;;;;;;;6.40;3.70;;;;;;;22.86;100.00;96281.50;4945732;28;20152;-49
2021/08/20 01:36:09;;;;;;;5.88;3.97;;;;;;;23.09;100.00;96283.50;4946097;28;20078;-52
2021/08/20 01:38:45;;;;;;;4.72;3.30;;;;;;;22.93;100.00;96276.88;4948337;28;20077;-52
2021/08/20 01:41:15;;;;;;;4.63;3.50;;;;;;;22.99;100.00;96280.53;4945236;28;20446;-49
2021/08/20 01:43:44;;;;;;;4.93;3.65;;;;;;;23.15;100.00;96274.50;4950350;28;20074;-46
2021/08/20 01:46:12;;;;;;;6.43;4.00;;;;;;;22.93;100.00;96271.50;4946287;28;20720;-52
2021/08/20 01:48:45;;;;;;;4.72;3.80;;;;;;;23.16;100.00;96264.59;4955581;28;20066;-54
2021/08/20 01:51:14;;;;;;;5.70;4.03;;;;;;;22.69;100.00;96264.34;4949385;28;20067;-50
2021/08/20 01:53:46;;;;;;;5.00;3.70;;;;;;;22.89;100.00;96262.22;4950199;28;20078;-52
2021/08/20 01:56:16;;;;;;;4.70;3.67;;;;;;;22.84;100.00;96262.06;4949168;28;20063;-50
2021/08/20 01:58:46;;;;;;;4.60;3.60;;;;;;;22.81;100.00;96259.00;4947963;28;20079;-48
2021/08/20 02:01:25;;;;;;;;;;;;;;;22.71;100.00;96267.59;4944046;28;20507;-52
2021/08/20 02:03:54;;;;;;;5.85;3.67;;;;;;;22.30;100.00;96263.78;4950012;28;19968;-50
2021/08/20 02:06:22;;;;;;;5.25;3.88;;;;;;;22.32;100.00;96266.22;4946815;28;20075;-49
2021/08/20 02:08:50;;;;;;;6.40;3.97;;;;;;;22.43;100.00;96260.91;4948359;28;20074;-52
2021/08/20 02:11:20;;;;;;;5.15;3.83;;;;;;;22.66;100.00;96252.16;4947604;28;20073;-51
2021/08/20 02:13:49;;;;;;;6.10;4.03;;;;;;;22.64;100.00;96256.13;4945980;28;20082;-51
2021/08/20 02:16:17;;;;;;;4.90;4.00;;;;;;;22.59;100.00;96264.88;4948771;28;20142;-49
2021/08/20 02:18:45;;;;;;;4.68;3.70;;;;;;;22.56;100.00;96272.56;4946683;28;20067;-48
2021/08/20 02:21:14;;;;;;;4.50;3.92;;;;;;;21.97;100.00;96269.44;4945403;28;21721;-46
2021/08/20 02:23:42;;;;;;;4.88;4.05;;;;;;;22.37;100.00;96269.88;4949336;28;20067;-47
2021/08/20 02:26:14;;;;;;;5.53;3.88;;;;;;;22.67;100.00;96264.56;4943139;28;20691;-50
2021/08/20 02:28:44;;;;;;;4.38;3.55;;;;;;;22.71;100.00;96264.91;4953101;28;20098;-51
2021/08/20 02:31:12;;;;;;;4.22;3.83;;;;;;;22.66;100.00;96254.84;4944055;28;20070;-51
2021/08/20 02:33:44;;;;;;;4.72;4.05;;;;;;;22.61;100.00;96261.94;4948915;28;20467;-53
2021/08/20 02:36:14;;;;;;;4.40;3.80;;;;;;;22.24;100.00;96261.97;4942572;28;20099;-54
2021/08/20 02:38:43;;;;;;;7.65;4.03;;;;;;;22.03;100.00;96264.00;4943118;28;20067;-53
2021/08/20 02:41:11;;;;;;;5.15;3.83;;;;;;;21.91;100.00;96262.25;4948063;28;20086;-54
2021/08/20 02:43:40;;;;;;;5.13;3.42;;;;;;;22.02;100.00;96264.19;4947313;28;20086;-50
2021/08/20 02:46:10;;;;;;;5.20;3.88;;;;;;;21.83;100.00;96273.28;4944521;28;20075;-51
2021/08/20 02:48:38;;;;;;;4.60;3.65;;;;;;;21.79;100.00;96268.34;4946275;28;20066;-50
2021/08/20 02:51:07;;;;;;;6.75;3.92;;;;;;;21.73;100.00;96268.41;4945417;28;20058;-47
2021/08/20 02:53:36;;;;;;;7.95;3.92;;;;;;;21.60;100.00;96263.97;4947241;28;20085;-48
2021/08/20 02:56:05;;;;;;;5.82;4.00;;;;;;;21.75;100.00;96256.41;4945122;28;20079;-52
2021/08/20 02:58:34;;;;;;;4.55;4.05;;;;;;;21.59;100.00;96256.13;4944865;28;20461;-49
2021/08/20 03:01:02;;;;;;;8.02;4.43;;;;;;;21.28;100.00;96239.81;4944300;28;20059;-52
2021/08/20 03:03:32;;;;;;;5.13;3.95;;;;;;;21.36;100.00;96252.16;4943760;28;20478;-51
2021/08/20 03:06:00;;;;;;;7.57;4.20;;;;;;;21.50;100.00;96248.34;4946219;28;20075;-50
2021/08/20 03:08:29;;;;;;;4.80;4.30;;;;;;;21.47;100.00;96251.50;4943236;28;20071;-53
2021/08/20 03:10:57;;;;;;;5.47;4.25;;;;;;;21.35;100.00;96250.53;4945849;28;20093;-52
2021/08/20 03:13:26;;;;;;;5.95;4.60;;;;;;;21.45;100.00;96260.78;4946074;28;20079;-49
2021/08/20 03:15:54;;;;;;;5.63;4.10;;;;;;;21.53;100.00;96260.50;4945876;28;20067;-53
2021/08/20 03:18:22;;;;;;;4.90;4.00;;;;;;;21.37;100.00;96261.88;4945849;28;20488;-52
2021/08/20 03:20:52;;;;;;;5.72;4.05;;;;;;;21.15;100.00;96264.03;4944404;28;20156;-54
2021/08/20 03:23:21;;;;;;;5.50;4.32;;;;;;;21.44;100.00;96261.81;4945754;28;20059;-51
2021/08/20 03:25:49;;;;;;;7.53;4.55;;;;;;;21.55;100.00;96258.44;4945620;28;20555;-52
2021/08/20 03:28:18;;;;;;;6.50;4.43;;;;;;;21.80;100.00;96264.63;4940074;28;20047;-47
2021/08/20 03:30:47;;;;;;;8.02;5.00;;;;;;;21.37;100.00;96263.72;4942442;28;20479;-52
2021/08/20 03:33:15;;;;;;;5.88;4.53;;;;;;;21.20;100.00;96274.13;4941794;28;20122;-51
2021/08/20 03:35:43;;;;;;;8.50;4.85;;;;;;;21.32;100.00;96267.84;4944990;28;20559;-50
2021/08/20 03:38:13;;;;;;;5.35;4.55;;;;;;;21.75;100.00;96277.06;4947769;28;20482;-49
2021/08/20 03:40:41;;;;;;;6.35;4.32;;;;;;;21.14;100.00;96289.22;4943604;28;20495;-52
2021/08/20 03:43:10;;;;;;;6.55;5.20;;;;;;;21.26;100.00;96281.31;4942980;28;20070;-51
2021/08/20 03:45:38;;;;;;;6.80;4.57;;;;;;;21.75;100.00;96283.25;4940214;28;20097;-47
2021/08/20 03:48:07;;;;;;;9.50;4.97;;;;;;;21.52;100.00;96281.16;4945240;28;20082;-50
2021/08/20 03:50:35;;;;;;;6.90;4.95;;;;;;;21.88;100.00;96279.63;4945218;28;20064;-51
2021/08/20 03:53:03;;;;;;;7.20;5.03;;;;;;;22.18;100.00;96274.41;4941775;28;20083;-51
2021/08/20 03:55:33;;;;;;;5.78;5.10;;;;;;;22.19;100.00;96281.41;4944017;28;20087;-54
2021/08/20 03:58:01;;;;;;;8.20;5.03;;;;;;;21.76;100.00;96284.06;4944494;28;20070;-52
2021/08/20 04:00:30;;;;;;;6.90;4.90;;;;;;;21.84;100.00;96283.78;4944725;28;20078;-52
2021/08/20 04:02:58;;;;;;;8.23;5.00;;;;;;;21.97;100.00;96297.09;4943221;28;20062;-50
2021/08/20 04:05:27;;;;;;;8.55;4.90;;;;;;;22.27;100.00;96288.38;4943141;28;20078;-47
2021/08/20 04:07:56;;;;;;;6.13;4.60;;;;;;;22.45;100.00;96287.56;4945639;28;20075;-46
2021/08/20 04:10:24;;;;;;;5.53;4.25;;;;;;;22.32;100.00;96296.59;4945713;28;20094;-49
2021/08/20 04:12:54;;;;;;;4.05;3.65;;;;;;;22.26;100.00;96294.78;4945205;28;20098;-51
2021/08/20 04:15:24;;;;;;;4.63;4.22;;;;;;;21.86;100.00;96300.50;4943393;28;20545;-49
2021/08/20 04:17:52;;;;;;;5.85;3.90;;;;;;;22.35;100.00;96301.53;4942185;28;20074;-46
2021/08/20 04:20:20;;;;;;;6.32;4.72;;;;;;;22.46;100.00;96295.41;4941106;28;20063;-48
2021/08/20 04:22:49;;;;;;;7.00;4.75;;;;;;;22.28;100.00;96298.91;4949525;28;20612;-51
2021/08/20 04:25:18;;;;;;;6.03;4.28;;;;;;;21.97;100.00;96299.78;4943348;28;20248;-50
2021/08/20 04:27:46;;;;;;;5.53;3.72;;;;;;;21.96;100.00;96300.84;4947881;28;20602;-52
2021/08/20 04:30:18;;;;;;;5.15;3.70;;;;;;;22.09;100.00;96309.78;4947457;28;20082;-50
2021/08/20 04:32:47;;;;;;;3.78;3.38;;;;;;;21.96;100.00;96316.13;4945605;28;20074;-48
2021/08/20 04:35:16;;;;;;;4.88;4.20;;;;;;;22.16;100.00;96318.66;4945660;28;20082;-51
2021/08/20 04:37:44;;;;;;;6.45;4.22;;;;;;;22.32;100.00;96309.19;4956572;28;20075;-50
2021/08/20 04:40:13;;;;;;;5.00;4.32;;;;;;;22.35;100.00;96314.13;4946369;28;20063;-52
2021/08/20 04:42:41;;;;;;;7.75;4.43;;;;;;;22.46;100.00;96319.59;4948438;28;20073;-50
2021/08/20 04:45:10;;;;;;;7.43;4.80;;;;;;;22.43;100.00;96317.34;4946354;28;20066;-48
2021/08/20 04:47:40;;;;;;;7.10;4.95;;;;;;;22.43;100.00;96322.72;4949217;28;20062;-51
2021/08/20 04:50:10;;;;;;;8.40;4.57;;;;;;;22.56;100.00;96323.63;4948570;28;20086;-53
2021/08/20 04:52:38;;;;;;;5.60;4.63;;;;;;;22.49;100.00;96329.06;4952474;28;20410;-52
2021/08/20 04:55:07;;;;;;;5.75;4.82;;;;;;;22.51;100.00;96327.81;4934032;28;20073;-51
2021/08/20 04:57:36;;;;;;;7.05;4.90;;;;;;;22.51;100.00;96325.13;4940758;28;20082;-52
2021/08/20 05:00:07;;;;;;;5.78;4.82;;;;;;;22.47;100.00;96328.47;4943291;28;20071;-47
2021/08/20 05:02:36;;;;;;;6.82;4.60;;;;;;;22.65;100.00;96328.50;4944102;28;20067;-52
2021/08/20 05:05:08;;;;;;;5.55;4.57;;;;;;;22.73;100.00;96325.50;4941150;28;20462;-53
2021/08/20 05:07:36;;;;;;;9.77;4.60;;;;;;;22.58;100.00;96326.94;4949184;28;20087;-53
2021/08/20 05:10:09;;;;;;;8.10;4.72;;;;;;;22.76;100.00;96334.97;4939567;28;20556;-50
2021/08/20 05:12:38;;;;;;;7.40;5.03;;;;;;;23.20;100.00;96331.16;4940215;28;20085;-53
2021/08/20 05:15:08;;;;;;;6.40;4.25;;;;;;;23.43;100.00;96332.28;4947240;28;20524;-51
2021/08/20 05:17:36;;;;;;;4.32;3.92;;;;;;;23.20;100.00;96327.66;4944673;28;20074;-53
2021/08/20 05:20:08;;;;;;;4.60;3.80;;;;;;;23.61;100.00;96332.25;4947202;28;20083;-51
2021/08/20 05:22:46;;;;;;;4.38;3.65;;;;;;;23.72;100.00;96332.53;4952829;28;20538;-51
2021/08/20 05:25:15;;;;;;;12.77;3.83;;;;;;;23.80;100.00;96334.88;4944316;28;20544;-56
2021/08/20 05:27:43;;;;;;;6.85;4.05;;;;;;;23.85;100.00;96346.63;4940450;28;20543;-52
2021/08/20 05:30:13;;;;;;;4.70;3.65;;;;;;;24.21;100.00;96349.34;4940835;28;20075;-50
2021/08/20 05:32:41;;;;;;;4.57;3.73;;;;;;;24.44;100.00;96344.00;4945361;28;20067;-53
2021/08/20 05:35:14;;;;;;;5.38;3.90;;;;;;;24.53;100.00;96349.84;4943615;28;20566;-54
2021/08/20 05:37:44;;;;;;;6.07;3.78;;;;;;;24.56;100.00;96354.75;4948665;28;20159;-52
2021/08/20 05:40:13;;;;;;;5.13;3.47;;;;;;;24.10;100.00;96356.38;4945070;28;20504;-51
2021/08/20 05:42:42;;;;;;;5.47;3.80;;;;;;;24.47;100.00;96353.50;4945637;28;20075;-53
2021/08/20 05:45:11;;;;;;;4.57;3.80;;;;;;;24.30;100.00;96359.53;4943692;28;20075;-49
2021/08/20 05:47:40;;;;;;;5.75;4.28;;;;;;;24.66;100.00;96351.47;4948238;28;20079;-49
2021/08/20 05:50:09;;;;;;;5.35;3.90;;;;;;;24.76;100.00;96362.47;4943278;28;20090;-53
2021/08/20 05:52:39;;;;;;;4.57;3.97;;;;;;;24.91;100.00;96356.59;4943059;28;20051;-50
2021/08/20 05:55:10;;;;;;;4.88;4.18;;;;;;;24.68;100.00;96369.06;4945239;28;20078;-48
2021/08/20 05:57:38;;;;;;;6.70;3.95;;;;;;;24.21;100.00;96365.50;4943061;28;20074;-50
2021/08/20 06:00:08;;;;;;;5.53;4.28;;;;;;;25.03;100.00;96363.59;4947665;28;20070;-52
2021/08/20 06:02:40;;;;;;;6.30;4.00;;;;;;;25.13;100.00;96357.63;4945433;28;20067;-54
2021/08/20 06:05:09;;;;;;;4.20;3.80;;;;;;;23.92;100.00;96359.97;4946731;28;20076;-49
2021/08/20 06:07:39;;;;;;;6.77;3.97;;;;;;;23.14;100.00;96358.16;4940483;28;20094;-50
2021/08/20 06:10:09;;;;;;;6.60;4.05;;;;;;;23.95;100.00;96356.81;4946532;28;20573;-53
2021/08/20 06:12:37;;;;;;;5.03;4.18;;;;;;;23.75;100.00;96356.31;4943939;28;20067;-53
2021/08/20 06:15:06;;;;;;;5.22;4.57;;;;;;;23.42;100.00;96360.25;4940837;28;20098;-51
2021/08/20 06:17:35;;;;;;;5.63;4.77;;;;;;;23.23;100.00;96356.78;4943391;28;20067;-50
2021/08/20 06:20:04;;;;;;;7.38;4.80;;;;;;;24.34;100.00;96365.28;4947205;28;20089;-49
2021/08/20 06:22:33;;;;;;;8.75;5.35;;;;;;;24.26;100.00;96354.84;4955368;28;20090;-47
2021/08/20 06:25:03;;;;;;;7.93;5.32;;;;;;;23.32;100.00;96360.78;4946151;28;20067;-52
2021/08/20 06:27:31;;;;;;;8.27;5.63;;;;;;;23.83;100.00;96356.78;4946901;28;20074;-49
2021/08/20 06:30:00;;;;;;;11.13;5.63;;;;;;;23.92;100.00;96352.72;4950767;28;20077;-50
2021/08/20 06:32:28;;;;;;;8.57;5.45;;;;;;;23.93;100.00;96351.66;4951168;28;20075;-48
2021/08/20 06:34:57;;;;;;;6.82;6.13;;;;;;;23.38;100.00;96356.38;4951720;28;20094;-54
2021/08/20 06:37:25;;;;;;;9.68;7.00;;;;;;;24.82;100.00;96359.66;4949608;28;20083;-49
2021/08/20 06:39:54;;;;;;;8.52;6.40;;;;;;;23.91;100.00;96369.91;4948267;28;20099;-49
2021/08/20 06:42:24;;;;;;;7.30;5.70;;;;;;;24.92;100.00;96364.47;4946339;28;20079;-48
2021/08/20 06:44:52;;;;;;;6.78;6.03;;;;;;;25.18;100.00;96365.81;4946219;28;20070;-49
2021/08/20 06:47:20;;;;;;;9.05;5.90;;;;;;;24.38;100.00;96371.84;4949573;28;20520;-52
2021/08/20 06:49:50;;;;;;;8.02;6.45;;;;;;;25.82;100.00;96367.59;4953608;28;20098;-56
2021/08/20 06:52:19;;;;;;;6.45;5.85;;;;;;;24.48;100.00;96379.38;4944916;28;20263;-47
2021/08/20 06:54:47;;;;;;;11.70;6.40;;;;;;;26.06;100.00;96369.09;4938820;28;20063;-52
2021/08/20 06:57:15;;;;;;;10.90;6.38;;;;;;;25.72;100.00;96371.72;4946511;28;20082;-51
2021/08/20 06:59:45;;;;;;;11.40;6.35;;;;;;;26.13;100.00;96366.22;4945397;28;20071;-50
2021/08/20 07:02:13;;;;;;;6.90;6.20;;;;;;;26.31;95.92;96367.84;4945572;28;20496;-49
2021/08/20 07:04:44;;;;;;;11.15;6.55;;;;;;;26.22;97.52;96364.72;4942922;28;20075;-56
2021/08/20 07:07:13;;;;;;;8.73;6.45;;;;;;;27.72;83.21;96361.06;4949960;28;20077;-55
2021/08/20 07:09:41;;;;;;;8.73;6.55;;;;;;;27.23;85.61;96358.38;4948424;28;20062;-57
2021/08/20 07:12:10;;;;;;;13.85;6.85;;;;;;;27.54;75.63;96368.47;4946568;28;20100;-52
2021/08/20 07:14:38;;;;;;;7.47;6.68;;;;;;;27.72;74.82;96371.88;4944857;28;20063;-51
2021/08/20 07:17:08;;;;;;;7.88;6.45;;;;;;;28.04;72.74;96369.22;4952866;28;20093;-51
2021/08/20 07:19:36;;;;;;;9.85;6.57;;;;;;;27.20;81.48;96382.16;4950964;28;20083;-52
2021/08/20 07:22:05;;;;;;;7.53;6.10;;;;;;;27.69;79.63;96376.72;4947955;28;20076;-49
2021/08/20 07:24:33;;;;;;;7.22;6.10;;;;;;;28.08;73.41;96379.31;4946160;28;20454;-49
2021/08/20 07:27:01;;;;;;;8.82;6.90;;;;;;;27.64;72.90;96379.41;4944542;28;20081;-50
2021/08/20 07:29:30;;;;;;;7.55;6.85;;;;;;;28.14;71.97;96378.25;4943299;28;20059;-54
2021/08/20 07:31:58;;;;;;;8.45;6.88;;;;;;;28.44;70.55;96376.91;4945608;28;20081;-52
2021/08/20 07:34:28;;;;;;;12.48;6.68;;;;;;;28.45;67.68;96383.97;4948060;28;20095;-54
2021/08/20 07:36:56;;;;;;;7.90;6.57;;;;;;;28.29;69.73;96379.50;4950249;28;20069;-53
2021/08/20 07:39:26;;;;;;;9.20;7.45;;;;;;;27.57;70.09;96372.56;4942845;28;20492;-55
2021/08/20 07:41:54;;;;;;;7.50;6.38;;;;;;;27.78;68.39;96374.44;4944270;28;20071;-53
2021/08/20 07:44:23;;;;;;;10.50;6.78;;;;;;;27.43;78.70;96382.97;4944788;28;20066;-53
2021/08/20 07:46:51;;;;;;;9.10;6.80;;;;;;;27.14;78.53;96380.44;4950583;28;20079;-54
2021/08/20 07:49:20;;;;;;;6.95;6.25;;;;;;;26.73;87.03;96379.88;4939652;28;20473;-51
2021/08/20 07:51:49;;;;;;;8.55;6.90;;;;;;;25.86;100.00;96383.06;4949184;28;20490;-52
2021/08/20 07:54:18;;;;;;;8.10;6.50;;;;;;;26.75;88.96;96380.44;4948867;28;20063;-50
2021/08/20 07:56:46;;;;;;;8.35;6.03;;;;;;;27.80;78.46;96387.72;4951940;28;20067;-48
2021/08/20 07:59:15;;;;;;;9.50;6.38;;;;;;;26.48;90.77;96390.31;4946232;28;20074;-57
2021/08/20 08:01:43;;;;;;;11.38;7.40;;;;;;;27.69;81.65;96390.28;4947633;28;20114;-54
2021/08/20 08:04:12;;;;;;;11.07;6.45;;;;;;;28.27;74.66;96392.47;4953310;28;20074;-50
2021/08/20 08:06:40;;;;;;;8.05;5.88;;;;;;;27.85;75.25;96385.88;4945236;28;20069;-53
2021/08/20 08:09:10;;;;;;;6.90;5.05;;;;;;;28.38;70.54;96391.47;4942777;28;20492;-51
2021/08/20 08:11:38;;;;;;;9.32;6.18;;;;;;;27.01;81.77;96393.50;4942181;28;20039;-53
2021/08/20 08:14:07;;;;;;;8.32;5.75;;;;;;;28.37;70.71;96389.84;4939934;28;20085;-53
2021/08/20 08:16:36;;;;;;;8.63;6.03;;;;;;;27.63;74.72;96391.31;4945933;28;20555;-49
2021/08/20 08:19:06;;;;;;;8.02;5.45;;;;;;;28.35;69.96;96402.84;4943514;28;20517;-48
2021/08/20 08:21:35;;;;;;;8.77;5.70;;;;;;;27.48;81.37;96395.75;4944231;28;20611;-54
2021/08/20 08:24:05;;;;;;;8.27;6.03;;;;;;;27.49;77.25;96402.78;4946474;28;20071;-54
2021/08/20 08:26:35;;;;;;;7.05;5.88;;;;;;;27.41;75.58;96407.59;4945066;28;20062;-52
2021/08/20 08:29:03;;;;;;;7.78;6.68;;;;;;;27.54;72.04;96405.56;4944272;28;20082;-55
2021/08/20 08:31:32;;;;;;;6.78;5.93;;;;;;;27.29;73.84;96409.63;4954013;28;20083;-54
2021/08/20 08:34:00;;;;;;;8.48;6.57;;;;;;;26.93;78.69;96414.53;4945719;28;20512;-54
2021/08/20 08:36:30;;;;;;;10.88;6.70;;;;;;;27.15;78.27;96416.44;4946646;28;20074;-51
2021/08/20 08:38:58;;;;;;;8.88;7.15;;;;;;;27.63;74.21;96412.16;4937996;28;20082;-51
2021/08/20 08:41:27;;;;;;;10.38;6.60;;;;;;;26.98;81.66;96409.19;4949822;28;20059;-51
2021/08/20 08:43:57;;;;;;;9.80;6.63;;;;;;;26.86;81.14;96419.28;4951398;28;20075;-50
2021/08/20 08:46:26;;;;;;;11.15;7.20;;;;;;;27.21;80.58;96416.28;4948132;28;20101;-50
2021/08/20 08:48:54;;;;;;;8.57;7.00;;;;;;;27.54;79.95;96419.13;4953191;28;20067;-54
2021/08/20 08:51:23;;;;;;;10.60;7.13;;;;;;;27.04;84.48;96422.78;4947301;28;20071;-50
2021/08/20 08:53:51;;;;;;;8.85;6.53;;;;;;;27.43;81.03;96413.56;4940494;28;20077;-51
2021/08/20 08:56:20;;;;;;;9.65;7.07;;;;;;;27.55;77.26;96418.84;4948118;28;20462;-50
2021/08/20 08:58:48;;;;;;;7.43;6.40;;;;;;;26.95;87.17;96423.22;4941565;28;20063;-53
2021/08/20 09:01:28;;;;;;;7.22;6.00;;;;;;;26.37;97.32;96424.47;4943849;28;20070;-50
2021/08/20 09:04:06;;;;;;;;;;;;;;;26.33;100.00;96426.03;4944958;28;20517;-54
2021/08/20 09:06:39;;;;;;;6.80;6.10;;;;;;;26.24;97.31;96424.78;4940806;28;19958;-49
2021/08/20 09:09:09;;;;;;;9.55;6.38;;;;;;;26.04;100.00;96426.06;4947284;28;20071;-51
2021/08/20 09:11:37;;;;;;;9.55;6.60;;;;;;;26.15;96.25;96427.09;4947619;28;20067;-51
2021/08/20 09:14:06;;;;;;;8.52;7.20;;;;;;;25.92;97.74;96429.91;4941327;28;20082;-53
2021/08/20 09:16:38;;;;;;;8.63;7.10;;;;;;;26.30;92.90;96426.53;4953425;28;20097;-50
2021/08/20 09:19:12;;;;;;;8.52;6.75;;;;;;;26.54;89.64;96421.81;4944469;28;20082;-51
2021/08/20 09:21:41;;;;;;;7.95;6.47;;;;;;;27.01;85.07;96428.69;4941553;28;20462;-50
2021/08/20 09:24:38;;;;;;;7.77;6.77;;;;;;;27.16;82.77;96418.94;4944625;28;20059;-52
2021/08/20 09:27:25;;;;;;;7.53;6.05;;;;;;;27.24;79.90;96424.97;4947247;28;20071;-50
2021/08/20 09:29:57;;;;;;;10.18;7.13;;;;;;;27.67;70.02;96413.31;4948741;28;20062;-48
2021/08/20 09:32:27;;;;;;;8.85;7.20;;;;;;;28.04;66.24;96415.31;4946407;28;20509;-51
2021/08/20 09:34:57;;;;;;;9.45;7.10;;;;;;;28.71;61.65;96414.81;4943194;28;20164;-51
2021/08/20 09:37:27;;;;;;;7.50;6.40;;;;;;;29.16;58.22;96415.38;4942091;28;20537;-49
2021/08/20 09:40:03;;;;;;;8.85;7.47;;;;;;;29.14;59.13;96415.63;4947440;28;20540;-53
2021/08/20 09:42:32;;;;;;;9.82;6.97;;;;;;;29.47;57.92;96413.63;4945664;28;20070;-56
2021/08/20 09:45:17;;;;;;;8.00;6.60;;;;;;;28.45;61.03;96415.72;4932158;28;20062;-50
2021/08/20 09:47:48;;;;;;;9.13;6.97;;;;;;;28.16;62.13;96410.56;4945157;28;20577;-51
2021/08/20 09:50:19;;;;;;;9.73;7.40;;;;;;;28.01;65.47;96411.25;4948818;28;20086;-56
2021/08/20 09:52:48;;;;;;;;;;;;;;;26.98;73.16;96411.09;4946972;28;20067;-54
2021/08/20 09:55:35;;;;;;;9.05;7.40;;;;;;;27.90;65.39;96409.50;4944195;28;20401;-53
2021/08/20 09:58:07;;;;;;;9.10;7.70;;;;;;;27.75;66.29;96409.31;4952017;28;20070;-50
2021/08/20 10:00:36;;;;;;;8.30;7.30;;;;;;;28.91;61.41;96407.91;4946559;28;20058;-53
2021/08/20 10:03:08;;;;;;;7.65;6.85;;;;;;;28.93;60.06;96406.53;4944688;28;20067;-53
2021/08/20 10:05:38;;;;;;;11.27;7.93;;;;;;;28.78;59.44;96412.69;4938118;28;20455;-50
2021/08/20 10:08:10;;;;;;;8.18;7.20;;;;;;;28.93;59.85;96414.69;4948045;28;20094;-50
2021/08/20 10:10:42;;;;;;;9.35;7.40;;;;;;;28.81;62.36;96411.38;4950811;28;20102;-51
2021/08/20 10:13:11;;;;;;;9.93;7.20;;;;;;;30.17;53.71;96397.75;4944532;28;20079;-50
2021/08/20 10:15:39;;;;;;;10.17;7.60;;;;;;;30.11;55.77;96401.56;4946854;28;20075;-53
2021/08/20 10:18:11;;;;;;;8.65;7.75;;;;;;;30.62;54.03;96396.13;4950796;28;20090;-55
2021/08/20 10:20:40;;;;;;;9.70;7.80;;;;;;;31.55;49.08;96392.91;4941010;28;20086;-55
2021/08/20 10:23:10;;;;;;;10.38;8.38;;;;;;;29.99;50.98;96399.91;4947347;28;20087;-48
2021/08/20 10:25:39;;;;;;;11.27;8.50;;;;;;;29.87;51.98;96399.38;4949725;28;20091;-51
2021/08/20 10:28:08;;;;;;;11.20;7.97;;;;;;;30.83;51.12;96389.59;4947510;28;20086;-50
2021/08/20 10:30:36;;;;;;;9.85;8.85;;;;;;;30.84;49.99;96390.44;4941993;28;20071;-51
2021/08/20 10:33:06;;;;;;;9.70;7.35;;;;;;;30.44;49.94;96390.16;4944287;28;20059;-48
2021/08/20 10:35:52;;;;;;;10.20;7.40;;;;;;;30.39;53.70;96382.03;4944865;28;20517;-50
2021/08/20 10:38:26;;;;;;;8.80;6.85;;;;;;;29.14;57.50;96391.19;4942731;28;20119;-49
2021/08/20 10:41:11;;;;;;;7.88;7.05;;;;;;;28.67;58.85;96392.00;4943717;28;20467;-50
2021/08/20 10:43:51;;;;;;;8.85;7.32;;;;;;;29.40;59.96;96383.16;4955784;28;20124;-48
2021/08/20 10:47:08;;;;;;;8.73;6.88;;;;;;;28.53;59.91;96391.66;4947593;28;20278;-55
2021/08/20 10:49:44;;;;;;;7.85;6.30;;;;;;;28.65;49.58;96398.75;4945814;28;20454;-53
2021/08/20 10:52:31;;;;;;;7.93;5.25;;;;;;;30.12;47.63;96387.69;4948088;28;20071;-50
2021/08/20 10:55:25;;;;;;;6.65;5.15;;;;;;;29.39;50.13;96382.34;4942788;28;20059;-54
2021/08/20 10:58:07;;;;;;;7.35;5.50;;;;;;;29.02;53.45;96393.31;4948900;28;20222;-56
2021/08/20 11:00:37;;;;;;;6.30;4.70;;;;;;;29.00;53.03;96392.75;4946202;28;20077;-48
2021/08/20 11:03:08;;;;;;;7.18;5.25;;;;;;;28.75;49.06;96388.78;4941518;28;20124;-52
2021/08/20 11:05:48;;;;;;;7.78;4.60;;;;;;;28.59;46.17;96392.47;4940617;28;20463;-48
2021/08/20 11:08:45;;;;;;;6.35;4.60;;;;;;;30.20;44.87;96380.94;4949249;28;20103;-50
2021/08/20 11:11:45;;;;;;;6.47;4.75;;;;;;;30.14;45.18;96384.69;4951387;28;20078;-47
2021/08/20 11:14:26;;;;;;;5.60;4.00;;;;;;;29.67;47.88;96385.72;4939517;28;20170;-48
2021/08/20 11:16:55;;;;;;;6.57;4.28;;;;;;;28.82;46.77;96394.00;4949003;28;20548;-53
2021/08/20 11:20:00;;;;;;;5.05;4.22;;;;;;;28.99;43.61;96396.53;4944802;28;20071;-48
2021/08/20 11:22:31;;;;;;;6.10;4.97;;;;;;;28.79;45.47;96400.75;4941262;29;20078;-50
2021/08/20 11:25:25;;;;;;;8.77;5.55;;;;;;;28.93;46.91;96401.09;4952137;28;20062;-48
2021/08/20 11:28:05;;;;;;;6.90;5.32;;;;;;;28.83;45.31;96393.72;4947736;28;20036;-49
2021/08/20 11:30:36;;;;;;;8.70;5.78;;;;;;;28.43;45.93;96394.28;4946339;28;20074;-48
2021/08/20 11:33:08;;;;;;;6.43;4.90;;;;;;;29.44;46.20;96387.78;4940309;28;20561;-54
2021/08/20 11:35:37;;;;;;;5.32;4.18;;;;;;;29.95;43.57;96393.38;4941558;28;20130;-49
2021/08/20 11:38:05;;;;;;;6.43;4.70;;;;;;;30.96;41.08;96390.94;4947216;28;20477;-51
2021/08/20 11:40:47;;;;;;;6.28;4.40;;;;;;;30.54;43.65;96386.63;4946575;28;20082;-51
2021/08/20 11:43:16;;;;;;;6.70;4.60;;;;;;;29.25;45.18;96400.19;4939768;28;20074;-49
2021/08/20 11:45:45;;;;;;;6.22;4.72;;;;;;;28.62;45.26;96392.75;4941975;28;20082;-51